Time;durP1;ratioP1;P1;durP2;ratioP2;P2;SDS_P1;SDS_P2;PMS_P1;PMS_P2;Temp;Humidity;BMP_temperature;BMP_pressure;BME280_temperature;BME280_humidity;BME280_pressure;Samples;Min_cycle;Max_cycle;Signal;HPM_P1;HPM_P2
2022/01/07 00:01:06;;;;;;;25.83;12.00;;;-0.10;99.90;;;;;;4607094;28;10000179;-73
2022/01/07 00:03:32;;;;;;;33.65;12.38;;;-0.20;99.90;;;;;;4959435;28;20039;-74
2022/01/07 00:05:59;;;;;;;28.83;12.38;;;-0.20;99.90;;;;;;4963114;28;20066;-73
2022/01/07 00:08:28;;;;;;;29.65;11.43;;;-0.20;99.90;;;;;;4964331;28;20607;-74
2022/01/07 00:10:54;;;;;;;37.55;12.48;;;-0.20;99.90;;;;;;4966743;28;20089;-73
2022/01/07 00:13:20;;;;;;;33.17;12.88;;;-0.10;99.90;;;;;;4965252;28;20427;-73
2022/01/07 00:15:45;;;;;;;24.15;11.70;;;-0.20;99.90;;;;;;4956668;28;20027;-74
2022/01/07 00:18:12;;;;;;;30.33;10.85;;;-0.20;99.90;;;;;;4960706;28;20034;-73
2022/01/07 00:20:38;;;;;;;29.58;12.05;;;-0.10;99.90;;;;;;4961830;28;20081;-73
2022/01/07 00:23:04;;;;;;;32.90;12.27;;;-0.10;99.90;;;;;;4965624;28;20034;-73
2022/01/07 00:25:30;;;;;;;32.20;12.05;;;-0.10;99.90;;;;;;4966497;28;20042;-74
2022/01/07 00:27:57;;;;;;;32.13;11.85;;;-0.10;99.90;;;;;;4961438;28;20050;-74
2022/01/07 00:30:23;;;;;;;31.50;12.27;;;-0.10;99.90;;;;;;4965439;28;20030;-73
2022/01/07 00:32:49;;;;;;;40.95;11.82;;;-0.10;99.90;;;;;;4964648;28;20519;-73
2022/01/07 00:35:17;;;;;;;33.95;11.90;;;-0.10;99.90;;;;;;4965328;28;20121;-74
2022/01/07 00:37:44;;;;;;;28.55;11.35;;;-0.10;99.90;;;;;;4963143;28;20019;-74
2022/01/07 00:40:14;;;;;;;29.50;11.85;;;0.00;99.90;;;;;;4964637;28;20109;-74
2022/01/07 00:42:40;;;;;;;28.10;10.88;;;0.00;99.90;;;;;;4964357;28;20113;-74
2022/01/07 00:45:06;;;;;;;36.17;11.80;;;0.00;99.90;;;;;;4969753;28;20114;-74
2022/01/07 00:47:32;;;;;;;36.38;12.23;;;0.00;99.90;;;;;;4964982;28;20042;-74
2022/01/07 00:49:58;;;;;;;29.40;12.00;;;0.00;99.90;;;;;;4964304;28;20034;-73
2022/01/07 00:52:24;;;;;;;36.60;12.52;;;0.00;99.90;;;;;;4962321;28;20054;-74
2022/01/07 00:54:50;;;;;;;26.77;11.27;;;0.00;99.90;;;;;;4962868;28;20043;-74
2022/01/07 00:57:16;;;;;;;34.60;11.50;;;-0.10;99.90;;;;;;4964610;28;20042;-76
2022/01/07 00:59:44;;;;;;;32.40;12.02;;;-0.10;99.90;;;;;;4962883;28;20058;-76
2022/01/07 01:02:10;;;;;;;39.55;12.32;;;-0.10;99.90;;;;;;4962077;28;20094;-76
2022/01/07 01:04:36;;;;;;;31.73;12.82;;;0.00;99.90;;;;;;4961214;28;20491;-72
2022/01/07 01:07:02;;;;;;;30.20;12.35;;;-0.10;99.90;;;;;;4960458;28;20120;-73
2022/01/07 01:09:27;;;;;;;31.63;11.27;;;-0.10;99.90;;;;;;4954827;28;20495;-73
2022/01/07 01:11:53;;;;;;;30.13;11.20;;;-0.10;99.90;;;;;;4966788;28;20038;-76
2022/01/07 01:14:19;;;;;;;40.53;12.68;;;-0.10;99.90;;;;;;4962896;28;20362;-73
2022/01/07 01:16:46;;;;;;;37.70;12.20;;;-0.10;99.90;;;;;;4962280;28;20383;-75
2022/01/07 01:19:12;;;;;;;36.60;12.05;;;0.00;99.90;;;;;;4962732;28;20035;-76
2022/01/07 01:21:38;;;;;;;35.25;11.95;;;0.00;99.90;;;;;;4965694;28;20030;-73
2022/01/07 01:24:04;;;;;;;34.15;11.45;;;0.00;99.90;;;;;;4962110;28;20024;-74
2022/01/07 01:26:29;;;;;;;37.38;12.48;;;0.00;99.90;;;;;;4962329;28;20187;-76
2022/01/07 01:28:55;;;;;;;33.13;11.95;;;0.10;99.90;;;;;;4963063;28;20053;-73
2022/01/07 01:31:21;;;;;;;31.88;12.27;;;0.10;99.90;;;;;;4966139;28;20372;-74
2022/01/07 01:33:47;;;;;;;36.80;12.52;;;0.10;99.90;;;;;;4962757;28;20035;-76
2022/01/07 01:36:14;;;;;;;31.10;12.35;;;0.20;99.90;;;;;;4961440;28;20476;-76
2022/01/07 01:38:41;;;;;;;40.20;12.82;;;0.20;99.90;;;;;;4964283;28;20533;-74
2022/01/07 01:41:09;;;;;;;37.10;12.05;;;0.20;99.90;;;;;;4964336;28;20084;-76
2022/01/07 01:43:35;;;;;;;36.60;12.82;;;0.20;99.90;;;;;;4961352;28;20479;-76
2022/01/07 01:46:01;;;;;;;48.72;13.02;;;0.20;99.90;;;;;;4966071;28;20156;-73
2022/01/07 01:48:27;;;;;;;35.42;12.07;;;0.20;99.90;;;;;;4969674;28;20308;-76
2022/01/07 01:50:55;;;;;;;31.38;12.45;;;0.20;99.90;;;;;;4961612;28;20027;-73
2022/01/07 01:53:21;;;;;;;37.00;12.55;;;0.20;99.90;;;;;;4964326;28;20536;-76
2022/01/07 01:55:47;;;;;;;34.28;12.57;;;0.20;99.90;;;;;;4964319;28;20039;-76
2022/01/07 01:58:12;;;;;;;35.03;12.68;;;0.20;99.90;;;;;;4967635;28;20480;-76
2022/01/07 02:00:38;;;;;;;35.58;12.65;;;0.30;99.90;;;;;;4962715;28;20032;-74
2022/01/07 02:03:05;;;;;;;34.15;12.75;;;0.30;99.90;;;;;;4968238;28;20050;-76
2022/01/07 02:05:31;;;;;;;34.30;13.00;;;0.30;99.90;;;;;;4960964;28;20196;-74
2022/01/07 02:07:57;;;;;;;37.65;12.23;;;0.30;99.90;;;;;;4967797;28;20054;-74
2022/01/07 02:10:23;;;;;;;34.38;13.32;;;0.30;99.90;;;;;;4968885;28;20502;-76
2022/01/07 02:12:49;;;;;;;36.80;12.77;;;0.30;99.90;;;;;;4968684;28;20034;-76
2022/01/07 02:15:16;;;;;;;34.47;13.95;;;0.30;99.90;;;;;;4966184;28;20037;-73
2022/01/07 02:17:46;;;;;;;37.10;14.02;;;0.30;99.90;;;;;;4967062;28;20034;-73
2022/01/07 02:20:15;;;;;;;39.35;13.98;;;0.30;99.90;;;;;;4963850;28;20118;-76
2022/01/07 02:22:40;;;;;;;36.97;15.02;;;0.40;99.90;;;;;;4965835;28;20018;-75
2022/01/07 02:25:07;;;;;;;39.08;14.27;;;0.40;99.90;;;;;;4964688;28;20213;-74
2022/01/07 02:27:38;;;;;;;38.10;14.75;;;0.40;99.90;;;;;;4955974;28;20055;-73
2022/01/07 02:30:06;;;;;;;29.83;13.85;;;0.50;99.90;;;;;;4965027;28;20188;-75
2022/01/07 02:32:32;;;;;;;37.95;13.85;;;0.50;99.90;;;;;;4965736;28;20415;-73
2022/01/07 02:34:58;;;;;;;35.72;14.23;;;0.50;99.90;;;;;;4963980;28;20038;-73
2022/01/07 02:37:23;;;;;;;36.80;14.75;;;0.60;99.90;;;;;;4967225;28;20035;-73
2022/01/07 02:39:49;;;;;;;40.85;14.80;;;0.60;99.90;;;;;;4963074;28;20018;-74
2022/01/07 02:42:15;;;;;;;40.47;15.75;;;0.60;99.90;;;;;;4965042;28;20026;-73
2022/01/07 02:44:41;;;;;;;33.90;14.65;;;0.60;99.90;;;;;;4964476;28;20509;-73
2022/01/07 02:47:07;;;;;;;41.60;15.18;;;0.60;99.90;;;;;;4967376;28;20109;-73
2022/01/07 02:49:33;;;;;;;40.03;16.35;;;0.60;99.90;;;;;;4965456;28;20495;-73
2022/01/07 02:51:58;;;;;;;36.88;15.15;;;0.60;99.90;;;;;;4965774;28;20026;-75
2022/01/07 02:54:24;;;;;;;35.70;15.48;;;0.60;99.90;;;;;;4963727;28;20484;-73
2022/01/07 02:56:50;;;;;;;38.15;16.02;;;0.60;99.90;;;;;;4961251;28;20304;-74
2022/01/07 02:59:16;;;;;;;41.03;16.30;;;0.60;99.90;;;;;;4957880;28;20019;-74
2022/01/07 03:01:41;;;;;;;33.95;15.23;;;0.60;99.90;;;;;;4956615;28;20392;-74
2022/01/07 03:04:07;;;;;;;40.92;17.17;;;0.60;99.90;;;;;;4965843;28;20078;-74
2022/01/07 03:06:34;;;;;;;44.30;17.55;;;0.60;99.90;;;;;;4960145;28;20863;-74
2022/01/07 03:09:00;;;;;;;37.08;16.73;;;0.60;99.90;;;;;;4956722;28;20055;-74
2022/01/07 03:11:25;;;;;;;35.67;16.33;;;0.70;99.90;;;;;;4962925;28;20450;-74
2022/01/07 03:13:51;;;;;;;41.70;17.50;;;0.70;99.90;;;;;;4950068;28;20636;-74
2022/01/07 03:16:17;;;;;;;35.55;17.08;;;0.70;99.90;;;;;;4963568;28;20253;-74
2022/01/07 03:18:43;;;;;;;39.40;16.83;;;0.70;99.90;;;;;;4964732;28;20030;-76
2022/01/07 03:21:09;;;;;;;42.10;17.70;;;0.70;99.90;;;;;;4966363;28;20415;-74
2022/01/07 03:23:36;;;;;;;37.83;17.25;;;0.70;99.90;;;;;;4968610;28;20080;-74
2022/01/07 03:26:03;;;;;;;40.20;17.77;;;0.70;99.90;;;;;;4959805;28;20034;-74
2022/01/07 03:28:29;;;;;;;45.05;18.48;;;0.70;99.90;;;;;;4960194;28;20517;-74
2022/01/07 03:30:54;;;;;;;33.97;16.77;;;0.70;99.90;;;;;;4964833;28;20039;-73
2022/01/07 03:33:20;;;;;;;37.50;18.00;;;0.70;99.90;;;;;;4964476;28;20039;-73
2022/01/07 03:35:47;;;;;;;37.88;17.42;;;0.70;99.90;;;;;;4966032;28;20495;-73
2022/01/07 03:38:13;;;;;;;40.80;19.20;;;0.70;99.90;;;;;;4966444;28;20030;-73
2022/01/07 03:40:39;;;;;;;42.50;18.27;;;0.70;99.90;;;;;;4962784;28;20152;-73
2022/01/07 03:43:05;;;;;;;40.22;17.23;;;0.70;99.90;;;;;;4966634;28;20101;-73
2022/01/07 03:45:30;;;;;;;43.28;17.95;;;0.80;99.90;;;;;;4956488;28;20532;-75
2022/01/07 03:47:56;;;;;;;41.55;18.33;;;0.80;99.90;;;;;;4967557;28;20031;-75
2022/01/07 03:50:26;;;;;;;34.92;18.08;;;0.70;99.90;;;;;;4957624;28;20118;-73
2022/01/07 03:52:53;;;;;;;43.55;18.38;;;0.80;99.90;;;;;;4965908;28;20031;-75
2022/01/07 03:55:21;;;;;;;40.05;18.20;;;0.80;99.90;;;;;;4962938;28;20365;-76
2022/01/07 03:57:47;;;;;;;32.60;17.38;;;0.80;99.90;;;;;;4962317;28;20037;-75
2022/01/07 04:00:20;;;;;;;43.72;18.48;;;0.80;99.90;;;;;;4960876;28;20313;-75
2022/01/07 04:02:46;;;;;;;40.10;17.95;;;0.80;99.90;;;;;;4963970;28;20084;-76
2022/01/07 04:05:14;;;;;;;43.65;17.75;;;0.80;99.90;;;;;;4966159;28;20041;-75
2022/01/07 04:07:40;;;;;;;41.28;18.30;;;0.80;99.90;;;;;;4961976;28;20418;-75
2022/01/07 04:10:06;;;;;;;38.05;18.13;;;0.80;99.90;;;;;;4963237;28;20042;-75
2022/01/07 04:12:32;;;;;;;37.80;18.00;;;0.80;99.90;;;;;;4967606;28;20474;-75
2022/01/07 04:15:21;;;;;;;40.55;17.83;;;0.90;99.90;;;;;;4965135;28;20039;-76
2022/01/07 04:17:46;;;;;;;38.00;17.70;;;0.90;99.90;;;;;;4958364;28;20530;-75
2022/01/07 04:20:14;;;;;;;34.55;17.70;;;0.90;99.90;;;;;;4953397;28;20428;-76
2022/01/07 04:22:40;;;;;;;38.25;18.30;;;0.90;99.90;;;;;;4967059;28;20073;-75
2022/01/07 04:25:09;;;;;;;36.65;17.92;;;0.90;99.90;;;;;;4961843;28;20112;-75
2022/01/07 04:27:35;;;;;;;39.38;18.55;;;0.90;99.90;;;;;;4958383;28;20059;-76
2022/01/07 04:30:02;;;;;;;47.67;19.10;;;0.90;99.90;;;;;;4953816;28;20870;-76
2022/01/07 04:32:27;;;;;;;32.95;17.77;;;0.90;99.90;;;;;;4961361;28;20030;-75
2022/01/07 04:34:53;;;;;;;38.60;18.08;;;0.90;99.90;;;;;;4961359;28;20675;-75
2022/01/07 04:37:19;;;;;;;45.35;18.27;;;1.00;99.90;;;;;;4958895;28;20031;-76
2022/01/07 04:39:45;;;;;;;38.20;18.00;;;1.00;99.90;;;;;;4957074;28;20029;-76
2022/01/07 04:42:10;;;;;;;43.60;18.20;;;1.00;99.90;;;;;;4966225;28;20633;-76
2022/01/07 04:44:40;;;;;;;39.85;18.02;;;1.00;99.90;;;;;;4959470;28;20038;-75
2022/01/07 04:47:07;;;;;;;33.28;17.27;;;1.00;99.90;;;;;;4979770;28;20166;-76
2022/01/07 04:49:33;;;;;;;40.92;17.58;;;1.00;99.90;;;;;;4963444;28;20038;-75
2022/01/07 04:51:58;;;;;;;35.25;17.73;;;1.00;99.90;;;;;;4963857;28;20093;-75
2022/01/07 04:54:24;;;;;;;35.40;16.25;;;1.00;99.90;;;;;;4956609;28;20542;-75
2022/01/07 04:56:49;;;;;;;37.10;17.02;;;1.10;99.90;;;;;;4959316;28;20030;-75
2022/01/07 04:59:15;;;;;;;35.88;16.50;;;1.00;99.90;;;;;;4954039;28;20531;-75
2022/01/07 05:01:41;;;;;;;40.42;17.38;;;1.00;99.90;;;;;;4963095;28;20034;-74
2022/01/07 05:04:06;;;;;;;36.13;16.55;;;1.00;99.90;;;;;;4951643;28;20031;-74
2022/01/07 05:06:45;;;;;;;36.47;17.05;;;1.00;99.90;;;;;;4960565;28;20092;-74
2022/01/07 05:09:19;;;;;;;36.67;17.00;;;1.00;99.90;;;;;;4961340;28;20423;-74
2022/01/07 05:11:50;;;;;;;40.72;18.02;;;1.00;99.90;;;;;;4960700;28;20506;-74
2022/01/07 05:14:16;;;;;;;36.22;17.30;;;1.00;99.90;;;;;;4964749;28;20550;-74
2022/01/07 05:16:42;;;;;;;37.35;17.38;;;1.00;99.90;;;;;;4963838;28;20097;-74
2022/01/07 05:19:09;;;;;;;34.00;17.33;;;1.00;99.90;;;;;;4966051;28;20526;-74
2022/01/07 05:21:35;;;;;;;37.47;17.17;;;1.00;99.90;;;;;;4961290;28;20022;-74
2022/01/07 05:24:01;;;;;;;36.10;16.10;;;1.00;99.90;;;;;;4957171;28;20035;-74
2022/01/07 05:26:27;;;;;;;34.55;16.55;;;1.00;99.90;;;;;;4957842;28;20392;-74
2022/01/07 05:28:52;;;;;;;38.95;17.08;;;1.00;99.90;;;;;;4966597;28;20024;-74
2022/01/07 05:31:19;;;;;;;38.70;17.77;;;1.00;99.90;;;;;;4963787;28;20078;-74
2022/01/07 05:33:45;;;;;;;44.47;18.75;;;1.00;99.90;;;;;;4959401;28;20039;-74
2022/01/07 05:36:11;;;;;;;40.53;17.35;;;1.00;99.90;;;;;;4963919;28;22660;-74
2022/01/07 05:38:37;;;;;;;33.60;16.42;;;1.00;99.90;;;;;;4964406;28;20066;-75
2022/01/07 05:41:02;;;;;;;30.35;15.98;;;1.00;99.90;;;;;;4278213;28;10000981;-76
2022/01/07 05:43:28;;;;;;;29.08;15.13;;;1.00;99.90;;;;;;4975549;28;20042;-74
2022/01/07 05:45:54;;;;;;;31.67;15.73;;;1.00;99.90;;;;;;4983110;28;20641;-74
2022/01/07 05:48:20;;;;;;;37.85;15.82;;;1.00;99.90;;;;;;4982086;28;20046;-74
2022/01/07 05:50:46;;;;;;;29.65;15.73;;;1.00;99.90;;;;;;4973958;28;20031;-74
2022/01/07 05:53:12;;;;;;;32.28;15.75;;;1.00;99.90;;;;;;4975642;28;20105;-74
2022/01/07 05:55:37;;;;;;;29.15;15.90;;;1.00;99.90;;;;;;4983471;28;20027;-74
2022/01/07 05:58:03;;;;;;;32.38;15.05;;;1.00;99.90;;;;;;4969025;28;20038;-74
2022/01/07 06:00:29;;;;;;;33.63;15.93;;;1.00;99.90;;;;;;4970157;28;20035;-74
2022/01/07 06:02:55;;;;;;;32.38;15.70;;;1.10;99.90;;;;;;4974914;28;20076;-75
2022/01/07 06:05:21;;;;;;;28.48;15.45;;;1.10;99.90;;;;;;4979301;28;20154;-74
2022/01/07 06:07:46;;;;;;;33.67;15.65;;;1.00;99.90;;;;;;4979491;28;20065;-74
2022/01/07 06:10:12;;;;;;;31.48;15.30;;;1.10;99.90;;;;;;4986081;28;20030;-74
2022/01/07 06:12:38;;;;;;;31.00;15.70;;;1.00;99.90;;;;;;4986180;28;20101;-74
2022/01/07 06:15:05;;;;;;;26.58;14.35;;;1.00;99.90;;;;;;4958272;28;20122;-74
2022/01/07 06:17:31;;;;;;;29.10;14.88;;;1.00;99.90;;;;;;4963118;28;20442;-74
2022/01/07 06:19:56;;;;;;;32.88;14.35;;;1.00;99.90;;;;;;4959547;28;20023;-75
2022/01/07 06:22:22;;;;;;;35.55;16.67;;;1.00;99.90;;;;;;4968509;28;20015;-75
2022/01/07 06:24:47;;;;;;;28.95;14.98;;;1.00;99.90;;;;;;4968474;28;20085;-75
2022/01/07 06:27:13;;;;;;;31.38;15.57;;;1.10;99.90;;;;;;4963370;28;20026;-75
2022/01/07 06:29:39;;;;;;;27.38;14.52;;;1.00;99.90;;;;;;4965592;28;20035;-75
2022/01/07 06:32:06;;;;;;;29.90;14.50;;;1.10;99.90;;;;;;4964102;28;20395;-75
2022/01/07 06:34:32;;;;;;;26.95;14.52;;;1.00;99.90;;;;;;4964385;28;20033;-74
2022/01/07 06:37:03;;;;;;;27.92;14.60;;;1.00;99.90;;;;;;4967716;28;20491;-75
2022/01/07 06:39:29;;;;;;;32.45;14.90;;;1.00;99.90;;;;;;4966273;28;20491;-75
2022/01/07 06:41:55;;;;;;;30.70;14.13;;;1.00;99.90;;;;;;4973766;28;20027;-75
2022/01/07 06:44:21;;;;;;;30.63;14.73;;;1.00;99.90;;;;;;4966734;28;20054;-75
2022/01/07 06:46:47;;;;;;;33.13;15.13;;;1.00;99.90;;;;;;4968354;28;20054;-76
2022/01/07 06:49:13;;;;;;;38.50;14.20;;;1.00;99.90;;;;;;4966624;28;20041;-75
2022/01/07 06:51:40;;;;;;;29.05;13.23;;;1.00;99.90;;;;;;4965662;28;20034;-75
2022/01/07 06:54:10;;;;;;;30.98;14.13;;;1.00;99.90;;;;;;4970115;28;20491;-75
2022/01/07 06:56:39;;;;;;;25.02;13.20;;;1.00;99.90;;;;;;4972126;28;20522;-75
2022/01/07 06:59:05;;;;;;;36.95;13.98;;;1.00;99.90;;;;;;4963690;28;20027;-75
2022/01/07 07:01:30;;;;;;;30.38;13.45;;;1.00;99.90;;;;;;4966707;28;20027;-75
2022/01/07 07:03:56;;;;;;;30.95;13.93;;;1.00;99.90;;;;;;4965988;28;20115;-75
2022/01/07 07:06:22;;;;;;;35.85;15.52;;;1.00;99.90;;;;;;4961926;28;20491;-75
2022/01/07 07:08:48;;;;;;;31.15;15.32;;;1.00;99.90;;;;;;4967259;28;20146;-76
2022/01/07 07:11:14;;;;;;;38.40;17.67;;;1.00;99.90;;;;;;4961748;28;20042;-75
2022/01/07 07:13:39;;;;;;;43.08;19.33;;;1.00;99.90;;;;;;4958364;28;20035;-75
2022/01/07 07:16:05;;;;;;;38.60;18.15;;;1.00;99.90;;;;;;4960290;28;20030;-75
2022/01/07 07:18:30;;;;;;;37.10;18.33;;;1.00;99.90;;;;;;4964477;28;20023;-75
2022/01/07 07:20:56;;;;;;;30.25;14.00;;;1.00;99.90;;;;;;4966050;28;20085;-75
2022/01/07 07:23:22;;;;;;;29.25;14.40;;;1.00;99.90;;;;;;4955920;28;20162;-75
2022/01/07 07:25:48;;;;;;;28.50;13.55;;;1.00;99.90;;;;;;4967243;28;20707;-75
2022/01/07 07:28:13;;;;;;;28.73;13.77;;;1.00;99.90;;;;;;4967616;28;20041;-75
2022/01/07 07:30:41;;;;;;;27.33;15.48;;;1.00;99.90;;;;;;4966453;28;20030;-75
2022/01/07 07:33:30;;;;;;;33.33;15.02;;;1.00;99.90;;;;;;4969395;28;20562;-75
2022/01/07 07:38:41;;;;;;;27.65;13.60;;;1.00;99.90;;;;;;4969287;28;20094;-75
2022/01/07 07:41:07;;;;;;;29.25;13.85;;;1.00;99.90;;;;;;4952004;28;20026;-75
2022/01/07 07:43:33;;;;;;;35.17;15.15;;;1.10;99.90;;;;;;4953967;28;20113;-74
2022/01/07 07:45:59;;;;;;;33.83;15.57;;;1.10;99.90;;;;;;4963667;28;20035;-75
2022/01/07 07:48:26;;;;;;;28.75;13.38;;;1.10;99.90;;;;;;4957939;28;20035;-75
2022/01/07 07:50:51;;;;;;;31.10;13.73;;;1.10;99.90;;;;;;4953947;28;20031;-75
2022/01/07 07:53:18;;;;;;;29.10;13.80;;;1.10;99.90;;;;;;4956109;28;20038;-74
2022/01/07 07:55:48;;;;;;;31.13;14.90;;;1.10;99.90;;;;;;4962479;28;20046;-75
2022/01/07 07:58:13;;;;;;;32.50;15.73;;;1.10;99.90;;;;;;4963068;28;20117;-75
2022/01/07 08:00:40;;;;;;;28.27;14.38;;;1.20;99.90;;;;;;4965590;28;20166;-74
2022/01/07 08:03:05;;;;;;;31.13;14.40;;;1.20;99.90;;;;;;4965640;28;20117;-75
2022/01/07 08:05:31;;;;;;;34.92;15.00;;;1.20;99.90;;;;;;4961917;28;20491;-74
2022/01/07 08:08:02;;;;;;;29.13;14.40;;;1.10;99.90;;;;;;4962773;28;20073;-75
2022/01/07 08:10:31;;;;;;;27.92;14.85;;;1.10;99.90;;;;;;4964470;28;20034;-74
2022/01/07 08:15:58;;;;;;;29.58;16.35;;;1.10;99.90;;;;;;4939826;28;20056;-75
2022/01/07 08:15:58;;;;;;;33.63;17.00;;;1.10;99.90;;;;;;4958560;28;20179;-75
2022/01/07 08:18:24;;;;;;;33.55;15.63;;;1.10;99.90;;;;;;4941855;28;20097;-74
2022/01/07 08:20:51;;;;;;;38.55;19.50;;;1.10;99.90;;;;;;4945999;28;20031;-74
2022/01/07 08:23:18;;;;;;;31.48;15.27;;;1.10;99.90;;;;;;4955853;28;20062;-74
2022/01/07 08:25:45;;;;;;;29.52;15.57;;;1.10;99.90;;;;;;4967037;28;20085;-74
2022/01/07 08:28:13;;;;;;;29.38;16.00;;;1.10;99.90;;;;;;4968449;28;20039;-74
2022/01/07 08:31:01;;;;;;;30.48;16.17;;;1.10;99.90;;;;;;4960517;28;20042;-74
2022/01/07 08:36:10;;;;;;;28.77;15.48;;;1.20;99.90;;;;;;4952465;28;20122;-73
2022/01/07 08:38:36;;;;;;;30.25;15.90;;;1.20;99.90;;;;;;4956273;28;20489;-73
2022/01/07 08:41:02;;;;;;;29.58;15.45;;;1.20;99.90;;;;;;4961097;28;20162;-73
2022/01/07 08:43:28;;;;;;;30.45;17.00;;;1.30;99.90;;;;;;4966665;28;20081;-74
2022/01/07 08:45:54;;;;;;;30.75;18.58;;;;;;;;;;4956382;28;20038;-73
2022/01/07 08:48:20;;;;;;;32.75;17.13;;;;;;;;;;4957402;28;20593;-73
2022/01/07 08:50:46;;;;;;;31.17;16.23;;;;;;;;;;4958490;28;20616;-74
2022/01/07 08:53:12;;;;;;;29.58;16.30;;;;;;;;;;4964215;28;20034;-73
2022/01/07 08:55:38;;;;;;;29.42;16.05;;;;;;;;;;4976343;28;20064;-73
2022/01/07 08:58:05;;;;;;;28.20;15.00;;;;;;;;;;4957845;28;20113;-73
2022/01/07 09:00:32;;;;;;;26.20;15.38;;;;;;;;;;4962226;28;20023;-73
2022/01/07 09:02:58;;;;;;;29.50;15.57;;;;;;;;;;4963064;28;20030;-73
2022/01/07 09:05:24;;;;;;;29.50;14.90;;;;;;;;;;4965508;28;20027;-73
2022/01/07 09:07:50;;;;;;;28.08;16.17;;;;;;;;;;4972906;28;20041;-73
2022/01/07 09:10:16;;;;;;;30.45;15.75;;;;;;;;;;4966699;28;20455;-73
2022/01/07 09:12:42;;;;;;;27.65;16.63;;;;;;;;;;4960020;28;20213;-73
2022/01/07 09:15:08;;;;;;;27.52;15.90;;;;;;;;;;4966702;28;20038;-73
2022/01/07 09:17:35;;;;;;;28.92;16.70;;;;;;;;;;4970231;28;20023;-73
2022/01/07 09:20:01;;;;;;;30.35;16.67;;;;;;;;;;4970752;28;20118;-73
2022/01/07 09:22:27;;;;;;;29.00;15.48;;;;;;;;;;4961525;28;20035;-73
2022/01/07 09:24:53;;;;;;;28.38;15.85;;;;;;;;;;4972278;28;20549;-73
2022/01/07 09:27:19;;;;;;;31.80;16.77;;;;;;;;;;4974579;28;20042;-73
2022/01/07 09:29:46;;;;;;;26.60;16.45;;;;;;;;;;4965272;28;20114;-72
2022/01/07 09:32:12;;;;;;;24.48;15.95;;;;;;;;;;4960121;28;20604;-73
2022/01/07 09:34:38;;;;;;;25.90;16.08;;;;;;;;;;4964004;28;20479;-73
2022/01/07 09:37:04;;;;;;;27.00;15.30;;;;;;;;;;4973928;28;20169;-73
2022/01/07 09:39:31;;;;;;;27.55;16.08;;;;;;;;;;4969400;28;20339;-72
2022/01/07 09:41:57;;;;;;;25.88;16.27;;;;;;;;;;4977292;28;20456;-73
2022/01/07 09:44:23;;;;;;;27.08;17.75;;;;;;;;;;4968153;28;20033;-73
2022/01/07 09:46:49;;;;;;;24.95;16.40;;;;;;;;;;4965153;28;20225;-73
2022/01/07 09:49:15;;;;;;;25.48;15.73;;;;;;;;;;4966307;28;20130;-73
2022/01/07 09:51:42;;;;;;;21.55;14.27;;;1.40;99.90;;;;;;4966046;28;20111;-72
2022/01/07 09:54:08;;;;;;;23.85;15.10;;;1.30;99.90;;;;;;4958725;28;20027;-73
2022/01/07 09:56:34;;;;;;;24.80;15.13;;;1.30;99.90;;;;;;4953128;28;20100;-73
2022/01/07 09:59:01;;;;;;;21.30;13.98;;;1.30;99.90;;;;;;4948059;28;20270;-72
2022/01/07 10:01:27;;;;;;;21.73;13.95;;;1.30;99.90;;;;;;4967636;28;20522;-72
2022/01/07 10:03:53;;;;;;;19.92;13.68;;;1.30;99.90;;;;;;4963667;28;20396;-72
2022/01/07 10:06:25;;;;;;;22.00;13.60;;;1.30;99.90;;;;;;4961451;28;20404;-72
2022/01/07 10:09:07;;;;;;;16.83;11.20;;;1.30;99.90;;;;;;4964344;28;20039;-72
2022/01/07 10:11:33;;;;;;;16.30;10.20;;;1.30;99.90;;;;;;4955108;28;20059;-72
2022/01/07 10:14:17;;;;;;;20.73;13.63;;;1.30;99.90;;;;;;4966255;28;20663;-73
2022/01/07 10:16:56;;;;;;;20.58;13.40;;;1.30;99.90;;;;;;4959307;28;20432;-72
2022/01/07 10:19:35;;;;;;;20.48;13.00;;;1.30;99.90;;;;;;4956133;28;20278;-73
2022/01/07 10:22:08;;;;;;;18.40;11.90;;;1.40;99.90;;;;;;4959157;28;20514;-73
2022/01/07 10:25:01;;;;;;;20.10;12.35;;;1.40;99.90;;;;;;4959806;28;20027;-72
2022/01/07 10:27:39;;;;;;;18.52;12.52;;;1.40;99.90;;;;;;4956886;28;20034;-73
2022/01/07 10:30:17;;;;;;;18.02;12.18;;;1.40;99.90;;;;;;4965780;28;20050;-71
2022/01/07 10:32:43;;;;;;;21.45;12.68;;;1.40;99.90;;;;;;4959917;28;20034;-72
2022/01/07 10:35:12;;;;;;;23.48;13.70;;;;;;;;;;4964041;28;20026;-71
2022/01/07 10:37:48;;;;;;;19.40;13.02;;;1.40;99.90;;;;;;4952313;28;20038;-72
2022/01/07 10:40:33;;;;;;;17.27;12.63;;;1.40;99.90;;;;;;4964450;28;20032;-71
2022/01/07 10:43:16;;;;;;;17.25;12.00;;;1.50;99.90;;;;;;4959896;28;20031;-71
2022/01/07 10:45:56;;;;;;;17.00;11.55;;;1.50;99.90;;;;;;4965412;28;20061;-71
2022/01/07 10:48:34;;;;;;;19.02;13.27;;;1.50;99.90;;;;;;4962944;28;20449;-71
2022/01/07 10:51:09;;;;;;;16.00;11.68;;;1.50;99.90;;;;;;4967565;28;20054;-73
2022/01/07 10:53:34;;;;;;;17.17;12.07;;;1.50;99.90;;;;;;4963135;28;20046;-71
2022/01/07 10:56:06;;;;;;;17.27;11.63;;;1.50;99.90;;;;;;4957738;28;20089;-73
2022/01/07 10:58:47;;;;;;;16.42;11.25;;;1.50;99.90;;;;;;4962186;28;20109;-73
2022/01/07 11:01:19;;;;;;;16.85;11.50;;;1.60;99.90;;;;;;4961933;28;20471;-73
2022/01/07 11:03:49;;;;;;;18.77;14.40;;;1.60;99.90;;;;;;4959979;28;20100;-73
2022/01/07 11:06:15;;;;;;;27.77;18.67;;;1.60;99.90;;;;;;4963714;28;20105;-73
2022/01/07 11:08:41;;;;;;;21.33;13.20;;;1.70;99.90;;;;;;4958222;28;20500;-73
2022/01/07 11:11:11;;;;;;;16.98;12.90;;;1.70;99.90;;;;;;4959874;28;20121;-73
2022/01/07 11:13:37;;;;;;;15.55;11.10;;;1.80;99.90;;;;;;4957326;28;20112;-73
2022/01/07 11:16:04;;;;;;;15.80;10.43;;;1.80;99.90;;;;;;4952017;28;20514;-73
2022/01/07 11:18:31;;;;;;;13.88;10.73;;;1.90;99.90;;;;;;4956096;28;20049;-71
2022/01/07 11:20:58;;;;;;;18.02;11.40;;;1.90;99.90;;;;;;4965976;28;20126;-73
2022/01/07 11:23:28;;;;;;;15.50;10.43;;;2.00;99.90;;;;;;4965005;28;20034;-73
2022/01/07 11:26:01;;;;;;;15.80;11.02;;;2.10;99.90;;;;;;4965121;28;20042;-72
2022/01/07 11:28:29;;;;;;;15.00;10.88;;;2.10;99.90;;;;;;4956046;28;20089;-71
2022/01/07 11:31:09;;;;;;;14.00;10.57;;;2.10;99.90;;;;;;4962589;28;20034;-73
2022/01/07 11:33:34;;;;;;;14.40;10.30;;;2.10;99.90;;;;;;4960244;28;20023;-72
2022/01/07 11:36:00;;;;;;;15.25;9.23;;;2.10;99.90;;;;;;4280771;28;10001106;-73
2022/01/07 11:38:59;;;;;;;14.02;9.95;;;2.10;99.90;;;;;;4969937;28;20587;-74
2022/01/07 11:41:45;;;;;;;18.60;10.13;;;2.10;99.90;;;;;;4978539;28;20074;-74
2022/01/07 11:44:30;;;;;;;18.20;10.48;;;2.10;99.90;;;;;;4968180;28;20026;-73
2022/01/07 11:47:23;;;;;;;15.75;10.95;;;2.20;99.90;;;;;;4968508;28;20031;-74
2022/01/07 11:50:07;;;;;;;11.18;7.85;;;2.20;99.90;;;;;;4975073;28;20052;-73
2022/01/07 11:52:37;;;;;;;15.63;10.93;;;2.20;99.90;;;;;;4967846;28;20133;-73
2022/01/07 11:55:23;;;;;;;14.38;10.00;;;2.10;99.90;;;;;;4974354;28;20454;-74
2022/01/07 11:57:57;;;;;;;16.13;10.43;;;2.20;99.90;;;;;;4971847;28;20207;-73
2022/01/07 12:00:58;;;;;;;13.88;10.02;;;2.10;99.90;;;;;;4973870;28;20528;-74
2022/01/07 12:03:45;;;;;;;16.27;10.70;;;2.20;99.90;;;;;;4976040;28;20529;-74
2022/01/07 12:06:23;;;;;;;14.63;10.15;;;2.20;99.90;;;;;;4971162;28;20144;-74
2022/01/07 12:11:40;;;;;;;14.18;10.27;;;2.20;99.90;;;;;;4958830;28;20039;-74
2022/01/07 12:14:12;;;;;;;14.20;10.30;;;2.20;99.90;;;;;;4956705;28;20042;-74
2022/01/07 12:16:39;;;;;;;14.13;10.05;;;2.20;99.90;;;;;;4960329;28;20031;-73
2022/01/07 12:19:27;;;;;;;14.98;9.82;;;2.10;99.90;;;;;;4960779;28;20066;-74
2022/01/07 12:21:55;;;;;;;14.73;10.00;;;2.10;99.90;;;;;;4944036;28;20062;-73
2022/01/07 12:24:31;;;;;;;13.95;9.38;;;2.10;99.90;;;;;;4951340;28;20054;-73
2022/01/07 12:27:13;;;;;;;13.75;9.82;;;2.10;99.90;;;;;;4960040;28;20162;-73
2022/01/07 12:29:44;;;;;;;16.38;11.73;;;2.20;99.90;;;;;;4962219;28;20043;-74
2022/01/07 12:32:13;;;;;;;16.52;11.20;;;2.10;99.90;;;;;;4957890;28;20042;-72
2022/01/07 12:34:44;;;;;;;17.67;12.57;;;2.10;99.90;;;;;;4954818;28;20037;-74
2022/01/07 12:37:16;;;;;;;22.00;13.50;;;2.10;99.90;;;;;;4959801;28;20407;-73
2022/01/07 12:39:45;;;;;;;17.70;11.55;;;2.10;99.90;;;;;;4964036;28;20110;-73
2022/01/07 12:42:11;;;;;;;17.38;12.52;;;2.20;99.90;;;;;;4961192;28;20030;-73
2022/01/07 12:44:39;;;;;;;15.68;10.35;;;2.10;99.90;;;;;;4960475;28;20038;-73
2022/01/07 12:47:06;;;;;;;17.10;11.43;;;2.20;99.90;;;;;;4953642;28;20119;-73
2022/01/07 12:49:36;;;;;;;16.92;10.77;;;2.10;99.90;;;;;;4958121;28;20027;-73
2022/01/07 12:52:04;;;;;;;16.20;11.63;;;2.10;99.90;;;;;;4957387;28;20038;-74
2022/01/07 12:54:30;;;;;;;17.42;12.85;;;2.20;99.90;;;;;;4957353;28;20066;-73
2022/01/07 12:56:56;;;;;;;17.92;11.27;;;2.20;99.90;;;;;;4954117;28;20241;-73